sensor_id;sensor_type;location;lat;lon;timestamp;pressure;altitude;pressure_sealevel;temperature;humidity
77086;BME280;66014;53.134;18.006;2024-03-02T00:01:20;100604.92;;;8.56;88.70
77086;BME280;66014;53.134;18.006;2024-03-02T00:03:47;100602.20;;;8.55;88.87
77086;BME280;66014;53.134;18.006;2024-03-02T00:06:20;100601.88;;;8.53;89.27
77086;BME280;66014;53.134;18.006;2024-03-02T00:08:47;100599.64;;;8.51;89.15
77086;BME280;66014;53.134;18.006;2024-03-02T00:11:13;100597.44;;;8.50;89.11
77086;BME280;66014;53.134;18.006;2024-03-02T00:13:41;100599.54;;;8.49;89.39
77086;BME280;66014;53.134;18.006;2024-03-02T00:16:07;100596.98;;;8.48;89.21
77086;BME280;66014;53.134;18.006;2024-03-02T00:18:35;100605.77;;;8.47;89.47
77086;BME280;66014;53.134;18.006;2024-03-02T00:21:03;100612.20;;;8.44;89.60
77086;BME280;66014;53.134;18.006;2024-03-02T00:23:30;100604.04;;;8.41;89.83
77086;BME280;66014;53.134;18.006;2024-03-02T00:25:57;100606.56;;;8.38;90.05
77086;BME280;66014;53.134;18.006;2024-03-02T00:28:25;100601.97;;;8.34;90.22
77086;BME280;66014;53.134;18.006;2024-03-02T00:33:34;100597.46;;;8.29;90.31
77086;BME280;66014;53.134;18.006;2024-03-02T00:36:03;100593.65;;;8.27;90.57
77086;BME280;66014;53.134;18.006;2024-03-02T00:38:33;100594.77;;;8.24;90.73
77086;BME280;66014;53.134;18.006;2024-03-02T00:41:06;100593.06;;;8.22;90.94
77086;BME280;66014;53.134;18.006;2024-03-02T00:43:38;100596.27;;;8.20;90.86
77086;BME280;66014;53.134;18.006;2024-03-02T00:46:06;100598.05;;;8.18;91.23
77086;BME280;66014;53.134;18.006;2024-03-02T00:48:33;100597.30;;;8.15;91.31
77086;BME280;66014;53.134;18.006;2024-03-02T00:51:04;100596.90;;;8.13;91.20
77086;BME280;66014;53.134;18.006;2024-03-02T00:53:31;100593.98;;;8.10;91.73
77086;BME280;66014;53.134;18.006;2024-03-02T00:55:59;100594.08;;;8.08;91.64
77086;BME280;66014;53.134;18.006;2024-03-02T00:58:29;100594.96;;;8.06;92.04
77086;BME280;66014;53.134;18.006;2024-03-02T01:00:55;100594.06;;;8.05;92.02
77086;BME280;66014;53.134;18.006;2024-03-02T01:03:22;100591.20;;;8.03;92.33
77086;BME280;66014;53.134;18.006;2024-03-02T01:05:50;100588.44;;;8.01;92.33
77086;BME280;66014;53.134;18.006;2024-03-02T01:08:16;100584.91;;;8.01;92.50
77086;BME280;66014;53.134;18.006;2024-03-02T01:10:42;100579.69;;;8.02;92.48
77086;BME280;66014;53.134;18.006;2024-03-02T01:13:08;100575.38;;;8.02;92.48
77086;BME280;66014;53.134;18.006;2024-03-02T01:15:34;100570.97;;;8.02;92.67
77086;BME280;66014;53.134;18.006;2024-03-02T01:18:00;100566.86;;;8.01;92.62
77086;BME280;66014;53.134;18.006;2024-03-02T01:20:26;100567.35;;;8.00;92.59
77086;BME280;66014;53.134;18.006;2024-03-02T01:22:53;100565.23;;;8.00;92.38
77086;BME280;66014;53.134;18.006;2024-03-02T01:25:19;100565.44;;;8.01;92.32
77086;BME280;66014;53.134;18.006;2024-03-02T01:27:44;100563.78;;;8.00;92.41
77086;BME280;66014;53.134;18.006;2024-03-02T01:30:10;100557.25;;;8.00;92.52
77086;BME280;66014;53.134;18.006;2024-03-02T01:32:39;100552.84;;;8.00;92.51
77086;BME280;66014;53.134;18.006;2024-03-02T01:35:06;100551.38;;;8.00;92.86
77086;BME280;66014;53.134;18.006;2024-03-02T01:37:32;100544.52;;;7.97;92.94
77086;BME280;66014;53.134;18.006;2024-03-02T01:39:58;100542.02;;;7.94;92.94
77086;BME280;66014;53.134;18.006;2024-03-02T01:42:25;100539.56;;;7.91;93.03
77086;BME280;66014;53.134;18.006;2024-03-02T01:44:51;100539.97;;;7.88;92.77
77086;BME280;66014;53.134;18.006;2024-03-02T01:47:17;100543.58;;;7.88;92.80
77086;BME280;66014;53.134;18.006;2024-03-02T01:49:43;100545.28;;;7.86;93.04
77086;BME280;66014;53.134;18.006;2024-03-02T01:52:09;100550.75;;;7.85;92.90
77086;BME280;66014;53.134;18.006;2024-03-02T01:54:37;100546.77;;;7.83;93.14
77086;BME280;66014;53.134;18.006;2024-03-02T01:57:03;100543.10;;;7.81;92.96
77086;BME280;66014;53.134;18.006;2024-03-02T01:59:29;100540.14;;;7.80;92.95
77086;BME280;66014;53.134;18.006;2024-03-02T02:01:55;100540.67;;;7.80;92.84
77086;BME280;66014;53.134;18.006;2024-03-02T02:04:22;100539.91;;;7.81;92.71
77086;BME280;66014;53.134;18.006;2024-03-02T02:06:54;100540.48;;;7.81;92.71
77086;BME280;66014;53.134;18.006;2024-03-02T02:09:20;100541.36;;;7.77;93.06
77086;BME280;66014;53.134;18.006;2024-03-02T02:11:48;100538.35;;;7.74;92.76
77086;BME280;66014;53.134;18.006;2024-03-02T02:14:15;100536.98;;;7.72;92.82
77086;BME280;66014;53.134;18.006;2024-03-02T02:16:41;100535.98;;;7.70;93.04
77086;BME280;66014;53.134;18.006;2024-03-02T02:19:08;100533.58;;;7.66;93.00
77086;BME280;66014;53.134;18.006;2024-03-02T02:21:35;100533.04;;;7.63;93.15
77086;BME280;66014;53.134;18.006;2024-03-02T02:24:03;100534.26;;;7.60;93.16
77086;BME280;66014;53.134;18.006;2024-03-02T02:26:29;100535.73;;;7.57;93.21
77086;BME280;66014;53.134;18.006;2024-03-02T02:28:55;100539.08;;;7.54;93.14
77086;BME280;66014;53.134;18.006;2024-03-02T02:31:21;100541.98;;;7.53;93.00
77086;BME280;66014;53.134;18.006;2024-03-02T02:33:47;100542.98;;;7.52;92.99
77086;BME280;66014;53.134;18.006;2024-03-02T02:36:13;100546.45;;;7.51;93.42
77086;BME280;66014;53.134;18.006;2024-03-02T02:38:44;100541.77;;;7.50;93.24
77086;BME280;66014;53.134;18.006;2024-03-02T02:41:10;100538.04;;;7.50;93.26
77086;BME280;66014;53.134;18.006;2024-03-02T02:43:35;100536.80;;;7.51;93.02
77086;BME280;66014;53.134;18.006;2024-03-02T02:46:02;100536.08;;;7.49;92.89
77086;BME280;66014;53.134;18.006;2024-03-02T02:48:28;100538.39;;;7.47;93.17
77086;BME280;66014;53.134;18.006;2024-03-02T02:50:54;100539.31;;;7.45;93.17
77086;BME280;66014;53.134;18.006;2024-03-02T02:53:20;100536.36;;;7.43;93.23
77086;BME280;66014;53.134;18.006;2024-03-02T02:55:46;100540.23;;;7.40;93.36
77086;BME280;66014;53.134;18.006;2024-03-02T02:58:12;100542.05;;;7.36;93.17
77086;BME280;66014;53.134;18.006;2024-03-02T03:00:40;100541.39;;;7.32;93.51
77086;BME280;66014;53.134;18.006;2024-03-02T03:03:06;100541.29;;;7.28;93.42
77086;BME280;66014;53.134;18.006;2024-03-02T03:05:32;100539.20;;;7.25;93.36
77086;BME280;66014;53.134;18.006;2024-03-02T03:07:58;100538.18;;;7.21;93.52
77086;BME280;66014;53.134;18.006;2024-03-02T03:10:24;100538.79;;;7.18;93.68
77086;BME280;66014;53.134;18.006;2024-03-02T03:12:52;100539.48;;;7.15;93.66
77086;BME280;66014;53.134;18.006;2024-03-02T03:15:19;100539.42;;;7.12;93.57
77086;BME280;66014;53.134;18.006;2024-03-02T03:17:44;100541.64;;;7.10;93.90
77086;BME280;66014;53.134;18.006;2024-03-02T03:20:12;100547.08;;;7.08;93.91
77086;BME280;66014;53.134;18.006;2024-03-02T03:22:42;100544.52;;;7.08;93.80
77086;BME280;66014;53.134;18.006;2024-03-02T03:25:08;100539.13;;;7.07;93.67
77086;BME280;66014;53.134;18.006;2024-03-02T03:27:34;100539.45;;;7.05;93.77
77086;BME280;66014;53.134;18.006;2024-03-02T03:30:00;100538.44;;;7.05;94.02
77086;BME280;66014;53.134;18.006;2024-03-02T03:32:26;100533.59;;;7.04;93.80
77086;BME280;66014;53.134;18.006;2024-03-02T03:34:52;100535.24;;;7.05;94.20
77086;BME280;66014;53.134;18.006;2024-03-02T03:37:18;100530.75;;;7.06;94.17
77086;BME280;66014;53.134;18.006;2024-03-02T03:39:44;100530.92;;;7.08;93.76
77086;BME280;66014;53.134;18.006;2024-03-02T03:42:10;100529.41;;;7.10;93.65
77086;BME280;66014;53.134;18.006;2024-03-02T03:44:36;100530.95;;;7.12;93.78
77086;BME280;66014;53.134;18.006;2024-03-02T03:47:02;100529.04;;;7.14;93.87
77086;BME280;66014;53.134;18.006;2024-03-02T03:49:28;100522.93;;;7.15;93.64
77086;BME280;66014;53.134;18.006;2024-03-02T03:51:54;100527.14;;;7.17;93.33
77086;BME280;66014;53.134;18.006;2024-03-02T03:54:20;100527.08;;;7.19;93.63
77086;BME280;66014;53.134;18.006;2024-03-02T03:56:46;100528.30;;;7.19;93.58
77086;BME280;66014;53.134;18.006;2024-03-02T03:59:12;100527.70;;;7.18;93.37
77086;BME280;66014;53.134;18.006;2024-03-02T04:01:39;100523.80;;;7.18;93.38
77086;BME280;66014;53.134;18.006;2024-03-02T04:04:05;100521.67;;;7.18;93.42
77086;BME280;66014;53.134;18.006;2024-03-02T04:06:30;100518.27;;;7.19;93.34
77086;BME280;66014;53.134;18.006;2024-03-02T04:08:56;100515.05;;;7.19;93.26
77086;BME280;66014;53.134;18.006;2024-03-02T04:11:22;100514.04;;;7.19;93.27
77086;BME280;66014;53.134;18.006;2024-03-02T04:13:48;100512.48;;;7.19;93.18
77086;BME280;66014;53.134;18.006;2024-03-02T04:16:14;100510.44;;;7.20;93.12
77086;BME280;66014;53.134;18.006;2024-03-02T04:18:42;100511.08;;;7.20;93.05
77086;BME280;66014;53.134;18.006;2024-03-02T04:21:08;100513.23;;;7.22;93.14
77086;BME280;66014;53.134;18.006;2024-03-02T04:23:34;100514.65;;;7.21;92.91
77086;BME280;66014;53.134;18.006;2024-03-02T04:26:00;100506.25;;;7.22;92.90
77086;BME280;66014;53.134;18.006;2024-03-02T04:28:27;100503.58;;;7.24;92.71
77086;BME280;66014;53.134;18.006;2024-03-02T04:30:53;100502.02;;;7.26;92.80
77086;BME280;66014;53.134;18.006;2024-03-02T04:33:19;100501.46;;;7.26;92.72
77086;BME280;66014;53.134;18.006;2024-03-02T04:35:45;100502.92;;;7.26;92.62
77086;BME280;66014;53.134;18.006;2024-03-02T04:38:12;100506.39;;;7.24;92.58
77086;BME280;66014;53.134;18.006;2024-03-02T04:40:37;100500.00;;;7.23;92.68
77086;BME280;66014;53.134;18.006;2024-03-02T04:43:03;100504.59;;;7.21;92.53
77086;BME280;66014;53.134;18.006;2024-03-02T04:45:30;100504.00;;;7.20;92.59
77086;BME280;66014;53.134;18.006;2024-03-02T04:47:56;100516.90;;;7.20;92.36
77086;BME280;66014;53.134;18.006;2024-03-02T04:50:21;100505.52;;;7.21;92.42
77086;BME280;66014;53.134;18.006;2024-03-02T04:52:47;100519.98;;;7.23;92.32
77086;BME280;66014;53.134;18.006;2024-03-02T04:55:13;100527.86;;;7.23;92.27
77086;BME280;66014;53.134;18.006;2024-03-02T04:57:42;100527.93;;;7.24;92.31
77086;BME280;66014;53.134;18.006;2024-03-02T05:00:09;100537.55;;;7.23;92.32
77086;BME280;66014;53.134;18.006;2024-03-02T05:02:36;100534.30;;;7.21;92.30
77086;BME280;66014;53.134;18.006;2024-03-02T05:05:01;100543.37;;;7.20;92.20
77086;BME280;66014;53.134;18.006;2024-03-02T05:07:28;100540.76;;;7.20;92.17
77086;BME280;66014;53.134;18.006;2024-03-02T05:09:54;100546.75;;;7.20;92.37
77086;BME280;66014;53.134;18.006;2024-03-02T05:12:20;100543.52;;;7.19;92.35
77086;BME280;66014;53.134;18.006;2024-03-02T05:14:49;100541.50;;;7.18;92.62
77086;BME280;66014;53.134;18.006;2024-03-02T05:17:15;100541.98;;;7.17;92.66
77086;BME280;66014;53.134;18.006;2024-03-02T05:19:42;100546.45;;;7.16;92.72
77086;BME280;66014;53.134;18.006;2024-03-02T05:22:09;100548.52;;;7.17;92.58
77086;BME280;66014;53.134;18.006;2024-03-02T05:24:35;100552.34;;;7.17;92.42
77086;BME280;66014;53.134;18.006;2024-03-02T05:27:00;100547.64;;;7.20;92.52
77086;BME280;66014;53.134;18.006;2024-03-02T05:29:26;100547.68;;;7.21;92.39
77086;BME280;66014;53.134;18.006;2024-03-02T05:31:52;100548.48;;;7.25;92.27
77086;BME280;66014;53.134;18.006;2024-03-02T05:34:18;100548.93;;;7.29;92.20
77086;BME280;66014;53.134;18.006;2024-03-02T05:36:44;100554.00;;;7.31;92.27
77086;BME280;66014;53.134;18.006;2024-03-02T05:39:10;100555.48;;;7.33;92.07
77086;BME280;66014;53.134;18.006;2024-03-02T05:41:36;100552.95;;;7.35;92.00
77086;BME280;66014;53.134;18.006;2024-03-02T05:44:02;100554.54;;;7.38;92.02
77086;BME280;66014;53.134;18.006;2024-03-02T05:46:28;100560.89;;;7.40;91.84
77086;BME280;66014;53.134;18.006;2024-03-02T05:48:54;100563.82;;;7.40;91.86
77086;BME280;66014;53.134;18.006;2024-03-02T05:51:22;100565.76;;;7.39;91.94
77086;BME280;66014;53.134;18.006;2024-03-02T05:53:50;100566.71;;;7.38;91.96
77086;BME280;66014;53.134;18.006;2024-03-02T05:56:15;100575.05;;;7.36;92.03
77086;BME280;66014;53.134;18.006;2024-03-02T05:58:42;100579.27;;;7.35;92.00
77086;BME280;66014;53.134;18.006;2024-03-02T06:04:10;100582.19;;;7.34;92.04
77086;BME280;66014;53.134;18.006;2024-03-02T06:06:36;100584.45;;;7.32;92.19
77086;BME280;66014;53.134;18.006;2024-03-02T06:09:03;100587.33;;;7.32;92.15
77086;BME280;66014;53.134;18.006;2024-03-02T06:11:36;100586.48;;;7.32;92.15
77086;BME280;66014;53.134;18.006;2024-03-02T06:14:07;100586.27;;;7.30;92.33
77086;BME280;66014;53.134;18.006;2024-03-02T06:16:33;100591.17;;;7.31;92.31
77086;BME280;66014;53.134;18.006;2024-03-02T06:19:01;100590.32;;;7.32;92.35
77086;BME280;66014;53.134;18.006;2024-03-02T06:21:29;100585.72;;;7.34;92.19
77086;BME280;66014;53.134;18.006;2024-03-02T06:23:55;100593.45;;;7.36;92.25
77086;BME280;66014;53.134;18.006;2024-03-02T06:26:22;100592.25;;;7.37;92.13
77086;BME280;66014;53.134;18.006;2024-03-02T06:28:50;100590.35;;;7.38;92.04
77086;BME280;66014;53.134;18.006;2024-03-02T06:31:47;100589.48;;;7.43;92.10
77086;BME280;66014;53.134;18.006;2024-03-02T06:34:13;100592.88;;;7.48;92.10
77086;BME280;66014;53.134;18.006;2024-03-02T06:36:39;100594.06;;;7.53;91.88
77086;BME280;66014;53.134;18.006;2024-03-02T06:39:06;100599.67;;;7.55;91.78
77086;BME280;66014;53.134;18.006;2024-03-02T06:41:33;100600.36;;;7.57;91.85
77086;BME280;66014;53.134;18.006;2024-03-02T06:43:59;100597.61;;;7.58;91.69
77086;BME280;66014;53.134;18.006;2024-03-02T06:46:25;100596.30;;;7.60;91.82
77086;BME280;66014;53.134;18.006;2024-03-02T06:48:51;100593.20;;;7.61;91.70
77086;BME280;66014;53.134;18.006;2024-03-02T06:51:17;100593.70;;;7.62;91.69
77086;BME280;66014;53.134;18.006;2024-03-02T06:53:43;100588.64;;;7.65;91.76
77086;BME280;66014;53.134;18.006;2024-03-02T06:56:10;100590.20;;;7.67;91.58
77086;BME280;66014;53.134;18.006;2024-03-02T06:58:36;100577.11;;;7.70;91.58
77086;BME280;66014;53.134;18.006;2024-03-02T07:01:01;100574.52;;;7.76;91.40
77086;BME280;66014;53.134;18.006;2024-03-02T07:03:28;100571.15;;;7.83;91.31
77086;BME280;66014;53.134;18.006;2024-03-02T07:05:55;100563.27;;;7.91;91.20
77086;BME280;66014;53.134;18.006;2024-03-02T07:08:21;100576.89;;;7.97;90.87
77086;BME280;66014;53.134;18.006;2024-03-02T07:10:47;100580.94;;;7.98;90.60
77086;BME280;66014;53.134;18.006;2024-03-02T07:13:13;100580.95;;;8.02;90.60
77086;BME280;66014;53.134;18.006;2024-03-02T07:15:41;100593.66;;;8.03;90.35
77086;BME280;66014;53.134;18.006;2024-03-02T07:18:34;100597.02;;;8.05;90.29
77086;BME280;66014;53.134;18.006;2024-03-02T07:21:00;100596.77;;;8.07;90.25
77086;BME280;66014;53.134;18.006;2024-03-02T07:23:27;100604.52;;;8.11;90.26
77086;BME280;66014;53.134;18.006;2024-03-02T07:25:56;100607.51;;;8.17;90.35
77086;BME280;66014;53.134;18.006;2024-03-02T07:28:25;100604.04;;;8.24;89.76
77086;BME280;66014;53.134;18.006;2024-03-02T07:31:01;100599.67;;;8.25;89.35
77086;BME280;66014;53.134;18.006;2024-03-02T07:33:28;100590.14;;;8.26;89.42
77086;BME280;66014;53.134;18.006;2024-03-02T07:35:54;100596.30;;;8.30;89.33
77086;BME280;66014;53.134;18.006;2024-03-02T07:38:26;100601.61;;;8.33;89.32
77086;BME280;66014;53.134;18.006;2024-03-02T07:40:52;100612.89;;;8.38;89.34
77086;BME280;66014;53.134;18.006;2024-03-02T07:43:20;100613.23;;;8.43;88.81
77086;BME280;66014;53.134;18.006;2024-03-02T07:45:48;100611.08;;;8.50;88.94
77086;BME280;66014;53.134;18.006;2024-03-02T07:48:15;100611.69;;;8.60;88.56
77086;BME280;66014;53.134;18.006;2024-03-02T07:50:41;100616.82;;;8.71;88.00
77086;BME280;66014;53.134;18.006;2024-03-02T07:53:07;100618.81;;;8.86;87.68
77086;BME280;66014;53.134;18.006;2024-03-02T07:55:48;100616.79;;;9.08;87.25
77086;BME280;66014;53.134;18.006;2024-03-02T07:58:40;100615.79;;;9.52;86.16
77086;BME280;66014;53.134;18.006;2024-03-02T08:01:14;100609.55;;;10.02;85.30
77086;BME280;66014;53.134;18.006;2024-03-02T08:03:40;100604.98;;;10.47;83.41
77086;BME280;66014;53.134;18.006;2024-03-02T08:06:06;100602.22;;;10.89;82.62
77086;BME280;66014;53.134;18.006;2024-03-02T08:08:32;100607.11;;;11.30;81.13
77086;BME280;66014;53.134;18.006;2024-03-02T08:10:58;100602.05;;;11.59;79.85
77086;BME280;66014;53.134;18.006;2024-03-02T08:13:24;100612.70;;;11.85;79.27
77086;BME280;66014;53.134;18.006;2024-03-02T08:15:51;100613.86;;;12.13;79.48
77086;BME280;66014;53.134;18.006;2024-03-02T08:18:19;100619.05;;;12.39;78.28
77086;BME280;66014;53.134;18.006;2024-03-02T08:20:45;100621.92;;;12.51;76.64
77086;BME280;66014;53.134;18.006;2024-03-02T08:23:11;100626.20;;;12.48;75.98
77086;BME280;66014;53.134;18.006;2024-03-02T08:25:37;100622.66;;;12.51;74.71
77086;BME280;66014;53.134;18.006;2024-03-02T08:28:03;100624.46;;;12.63;75.97
77086;BME280;66014;53.134;18.006;2024-03-02T08:30:30;100625.94;;;12.84;76.17
77086;BME280;66014;53.134;18.006;2024-03-02T08:32:56;100634.70;;;13.05;75.39
77086;BME280;66014;53.134;18.006;2024-03-02T08:35:22;100632.72;;;13.24;74.93
77086;BME280;66014;53.134;18.006;2024-03-02T08:37:49;100628.96;;;13.41;73.53
77086;BME280;66014;53.134;18.006;2024-03-02T08:40:15;100628.29;;;13.64;74.65
77086;BME280;66014;53.134;18.006;2024-03-02T08:42:41;100625.64;;;13.94;73.94
77086;BME280;66014;53.134;18.006;2024-03-02T08:45:09;100616.79;;;14.13;72.73
77086;BME280;66014;53.134;18.006;2024-03-02T08:47:35;100611.59;;;14.20;70.80
77086;BME280;66014;53.134;18.006;2024-03-02T08:50:01;100614.95;;;14.24;70.02
77086;BME280;66014;53.134;18.006;2024-03-02T08:52:29;100617.94;;;14.32;69.71
77086;BME280;66014;53.134;18.006;2024-03-02T08:54:55;100620.11;;;14.40;69.16
77086;BME280;66014;53.134;18.006;2024-03-02T08:57:22;100625.05;;;14.40;69.37
77086;BME280;66014;53.134;18.006;2024-03-02T08:59:48;100622.82;;;14.24;69.45
77086;BME280;66014;53.134;18.006;2024-03-02T09:02:14;100634.14;;;14.11;70.02
77086;BME280;66014;53.134;18.006;2024-03-02T09:04:40;100635.02;;;14.02;70.46
77086;BME280;66014;53.134;18.006;2024-03-02T09:07:06;100632.31;;;14.03;71.18
77086;BME280;66014;53.134;18.006;2024-03-02T09:09:34;100628.90;;;14.13;72.22
77086;BME280;66014;53.134;18.006;2024-03-02T09:12:01;100627.13;;;14.33;71.11
77086;BME280;66014;53.134;18.006;2024-03-02T09:14:27;100636.89;;;14.31;69.71
77086;BME280;66014;53.134;18.006;2024-03-02T09:16:53;100643.96;;;14.11;70.20
77086;BME280;66014;53.134;18.006;2024-03-02T09:19:21;100646.98;;;14.06;69.84
77086;BME280;66014;53.134;18.006;2024-03-02T09:21:47;100650.05;;;14.18;70.87
77086;BME280;66014;53.134;18.006;2024-03-02T09:24:14;100647.88;;;14.42;70.69
77086;BME280;66014;53.134;18.006;2024-03-02T09:26:40;100640.50;;;14.58;68.77
77086;BME280;66014;53.134;18.006;2024-03-02T09:29:06;100638.96;;;14.71;68.87
77086;BME280;66014;53.134;18.006;2024-03-02T09:31:32;100630.02;;;14.81;66.31
77086;BME280;66014;53.134;18.006;2024-03-02T09:33:59;100638.02;;;14.75;65.32
77086;BME280;66014;53.134;18.006;2024-03-02T09:36:25;100648.50;;;14.53;65.04
77086;BME280;66014;53.134;18.006;2024-03-02T09:38:51;100634.85;;;14.36;67.99
77086;BME280;66014;53.134;18.006;2024-03-02T09:41:18;100631.42;;;14.51;67.17
77086;BME280;66014;53.134;18.006;2024-03-02T09:43:45;100631.80;;;14.47;67.64
77086;BME280;66014;53.134;18.006;2024-03-02T09:46:19;100635.94;;;14.43;67.03
77086;BME280;66014;53.134;18.006;2024-03-02T09:49:12;100637.64;;;14.29;67.38
77086;BME280;66014;53.134;18.006;2024-03-02T09:55:45;100630.69;;;14.74;67.14
77086;BME280;66014;53.134;18.006;2024-03-02T09:58:28;100642.63;;;15.28;66.57
77086;BME280;66014;53.134;18.006;2024-03-02T10:00:57;100645.25;;;15.73;65.91
77086;BME280;66014;53.134;18.006;2024-03-02T10:03:23;100647.70;;;15.99;64.28
77086;BME280;66014;53.134;18.006;2024-03-02T10:05:52;100650.14;;;15.83;62.04
77086;BME280;66014;53.134;18.006;2024-03-02T10:08:21;100643.02;;;15.47;63.48
77086;BME280;66014;53.134;18.006;2024-03-02T10:11:00;100646.25;;;15.30;63.66
77086;BME280;66014;53.134;18.006;2024-03-02T10:13:27;100642.88;;;15.45;63.91
77086;BME280;66014;53.134;18.006;2024-03-02T10:16:12;100636.59;;;15.56;63.30
77086;BME280;66014;53.134;18.006;2024-03-02T10:18:38;100644.80;;;15.47;61.75
77086;BME280;66014;53.134;18.006;2024-03-02T10:21:21;100644.70;;;15.29;62.33
77086;BME280;66014;53.134;18.006;2024-03-02T10:23:51;100633.91;;;15.24;62.70
77086;BME280;66014;53.134;18.006;2024-03-02T10:26:18;100633.63;;;15.33;62.53
77086;BME280;66014;53.134;18.006;2024-03-02T10:28:47;100628.00;;;15.53;62.59
77086;BME280;66014;53.134;18.006;2024-03-02T10:31:14;100631.75;;;15.74;61.73
77086;BME280;66014;53.134;18.006;2024-03-02T10:33:40;100634.91;;;15.82;62.02
77086;BME280;66014;53.134;18.006;2024-03-02T10:36:08;100634.13;;;15.92;61.97
77086;BME280;66014;53.134;18.006;2024-03-02T10:38:34;100628.55;;;16.24;61.99
77086;BME280;66014;53.134;18.006;2024-03-02T10:41:01;100625.52;;;16.62;60.31
77086;BME280;66014;53.134;18.006;2024-03-02T10:43:29;100621.06;;;16.77;60.53
77086;BME280;66014;53.134;18.006;2024-03-02T10:45:57;100620.55;;;16.96;59.19
77086;BME280;66014;53.134;18.006;2024-03-02T10:48:25;100623.60;;;17.12;59.59
77086;BME280;66014;53.134;18.006;2024-03-02T10:50:53;100626.97;;;17.38;59.49
77086;BME280;66014;53.134;18.006;2024-03-02T10:53:19;100633.32;;;17.47;56.69
77086;BME280;66014;53.134;18.006;2024-03-02T10:55:47;100621.35;;;17.32;58.49
77086;BME280;66014;53.134;18.006;2024-03-02T10:58:20;100612.11;;;17.49;58.81
77086;BME280;66014;53.134;18.006;2024-03-02T11:00:46;100608.81;;;17.77;58.41
77086;BME280;66014;53.134;18.006;2024-03-02T11:03:14;100605.88;;;17.98;57.95
77086;BME280;66014;53.134;18.006;2024-03-02T11:05:47;100609.21;;;18.05;55.93
77086;BME280;66014;53.134;18.006;2024-03-02T11:08:19;100607.96;;;18.06;57.30
77086;BME280;66014;53.134;18.006;2024-03-02T11:10:50;100606.18;;;18.28;56.07
77086;BME280;66014;53.134;18.006;2024-03-02T11:13:25;100605.22;;;18.29;55.17
77086;BME280;66014;53.134;18.006;2024-03-02T11:15:55;100604.29;;;18.21;55.47
77086;BME280;66014;53.134;18.006;2024-03-02T11:18:25;100606.19;;;18.12;55.13
77086;BME280;66014;53.134;18.006;2024-03-02T11:20:52;100611.95;;;18.10;55.95
77086;BME280;66014;53.134;18.006;2024-03-02T11:23:32;100608.90;;;18.11;56.26
77086;BME280;66014;53.134;18.006;2024-03-02T11:26:22;100604.48;;;18.15;55.09
77086;BME280;66014;53.134;18.006;2024-03-02T11:28:51;100601.49;;;18.01;55.13
77086;BME280;66014;53.134;18.006;2024-03-02T11:31:17;100598.83;;;17.89;56.75
77086;BME280;66014;53.134;18.006;2024-03-02T11:33:43;100598.36;;;18.08;56.57
77086;BME280;66014;53.134;18.006;2024-03-02T11:36:10;100592.26;;;18.28;55.56
77086;BME280;66014;53.134;18.006;2024-03-02T11:38:37;100592.41;;;18.33;55.43
77086;BME280;66014;53.134;18.006;2024-03-02T11:41:07;100600.04;;;18.34;54.30
77086;BME280;66014;53.134;18.006;2024-03-02T11:43:39;100596.20;;;18.31;55.15
77086;BME280;66014;53.134;18.006;2024-03-02T11:46:05;100598.76;;;18.40;55.04
77086;BME280;66014;53.134;18.006;2024-03-02T11:48:36;100598.81;;;18.53;55.43
77086;BME280;66014;53.134;18.006;2024-03-02T11:51:03;100602.60;;;18.69;54.92
77086;BME280;66014;53.134;18.006;2024-03-02T11:53:31;100598.40;;;18.90;54.92
77086;BME280;66014;53.134;18.006;2024-03-02T11:56:03;100599.55;;;19.05;54.30
77086;BME280;66014;53.134;18.006;2024-03-02T11:58:34;100598.93;;;19.10;53.73
77086;BME280;66014;53.134;18.006;2024-03-02T12:01:02;100596.81;;;19.01;52.99
77086;BME280;66014;53.134;18.006;2024-03-02T12:03:28;100591.45;;;18.81;54.36
77086;BME280;66014;53.134;18.006;2024-03-02T12:05:55;100587.23;;;18.75;54.51
77086;BME280;66014;53.134;18.006;2024-03-02T12:08:21;100586.73;;;18.75;54.52
77086;BME280;66014;53.134;18.006;2024-03-02T12:10:58;100588.14;;;18.84;54.46
77086;BME280;66014;53.134;18.006;2024-03-02T12:13:25;100588.94;;;18.88;53.22
77086;BME280;66014;53.134;18.006;2024-03-02T12:15:54;100585.01;;;18.71;54.11
77086;BME280;66014;53.134;18.006;2024-03-02T12:18:25;100585.20;;;18.57;53.37
77086;BME280;66014;53.134;18.006;2024-03-02T12:21:01;100586.64;;;18.24;53.53
77086;BME280;66014;53.134;18.006;2024-03-02T12:23:54;100587.00;;;17.82;54.37
77086;BME280;66014;53.134;18.006;2024-03-02T12:26:23;100585.46;;;17.61;54.91
77086;BME280;66014;53.134;18.006;2024-03-02T12:28:55;100589.77;;;17.34;55.04
77086;BME280;66014;53.134;18.006;2024-03-02T12:31:22;100583.61;;;17.30;55.39
77086;BME280;66014;53.134;18.006;2024-03-02T12:34:04;100583.86;;;17.41;55.59
77086;BME280;66014;53.134;18.006;2024-03-02T12:36:42;100584.75;;;17.55;55.36
77086;BME280;66014;53.134;18.006;2024-03-02T12:39:11;100585.17;;;17.66;54.54
77086;BME280;66014;53.134;18.006;2024-03-02T12:41:41;100578.11;;;17.74;54.73
77086;BME280;66014;53.134;18.006;2024-03-02T12:44:12;100573.56;;;17.81;54.68
77086;BME280;66014;53.134;18.006;2024-03-02T12:46:38;100572.93;;;17.91;54.98
77086;BME280;66014;53.134;18.006;2024-03-02T12:49:12;100570.69;;;18.02;54.41
77086;BME280;66014;53.134;18.006;2024-03-02T12:51:41;100567.36;;;18.15;54.56
77086;BME280;66014;53.134;18.006;2024-03-02T12:54:10;100573.67;;;18.10;53.14
77086;BME280;66014;53.134;18.006;2024-03-02T12:56:41;100575.65;;;17.72;53.18
77086;BME280;66014;53.134;18.006;2024-03-02T12:59:19;100576.58;;;17.22;54.27